X  Schlie├čen METAR Luftfahrt Wetterdaten     KVAD Moody Air Force Base
Temperatur
75°F Temperatur
68°F Taupunkt
78% Feuchtigkeit



Wind
12 MPS
19 KM/S
5 M/S
10 KTS



90°
O
Aktuelle Wetterlage

Leicht  Regen Leicht Regen
Luftdruck 1014.92 (hPa) - 29.97 (inHg)
Sichtweite 10 (Meile) - 16.1 (Km)
Flughafen
Flughafen Code KVAD

Position : Moody Air Force Base
Entfernung: 5 (mi)

Metar:
KVAD 311942Z AUTO 09010KT 10SM -RA FEW024 BKN049 BKN070 OVC120 24/20 A2997 RMK AO2 RAB42 SLP150 $

Zeit: 31-05-2023 19:42 EDT